createdAt,value
2023-08-13T00:49:47.617Z,95798.50
2023-08-13T00:50:55.207Z,95793.23
2023-08-13T00:52:03.513Z,95800.11
2023-08-13T00:53:12.929Z,95798.61
2023-08-13T00:54:20.719Z,95799.36
2023-08-13T00:55:29.613Z,95799.03
2023-08-13T00:56:38.383Z,95803.05
2023-08-13T00:57:45.244Z,95800.02
2023-08-13T00:58:52.108Z,95799.91
2023-08-13T01:00:00.741Z,95797.38
2023-08-13T01:01:08.430Z,95795.30
2023-08-13T01:02:14.650Z,95795.45
2023-08-13T01:03:20.907Z,95796.27
2023-08-13T01:04:27.333Z,95796.07
2023-08-13T01:05:47.177Z,95793.86
2023-08-13T01:07:03.192Z,95793.73
2023-08-13T01:08:17.691Z,95796.10
2023-08-13T01:09:35.998Z,95796.73
2023-08-13T01:10:47.496Z,95793.98
2023-08-13T01:12:04.091Z,95791.42
2023-08-13T01:13:15.976Z,95793.91
2023-08-13T01:14:28.426Z,95798.06
2023-08-13T01:15:37.572Z,95798.30
2023-08-13T01:16:47.598Z,95799.45
2023-08-13T01:17:56.861Z,95797.58
2023-08-13T01:19:05.367Z,95795.58
2023-08-13T01:20:14.149Z,95800.83
2023-08-13T01:21:20.226Z,95801.48
2023-08-13T01:22:28.057Z,95796.38
2023-08-13T01:23:34.065Z,95796.17
2023-08-13T01:24:41.334Z,95796.02
2023-08-13T01:25:53.663Z,95791.48
2023-08-13T01:27:10.161Z,95793.10
2023-08-13T01:28:24.881Z,95792.91
2023-08-13T01:29:38.936Z,95788.79
2023-08-13T01:30:50.469Z,95788.21
2023-08-13T01:32:00.140Z,95788.91
2023-08-13T01:33:08.781Z,95789.52
2023-08-13T01:34:19.138Z,95787.73
2023-08-13T01:35:27.728Z,95785.97
2023-08-13T01:36:35.275Z,95785.09
2023-08-13T01:37:42.429Z,95787.73
2023-08-13T01:38:50.491Z,95787.84
2023-08-13T01:39:57.517Z,95781.71
2023-08-13T01:41:05.764Z,95782.05
2023-08-13T01:42:13.476Z,95783.02
2023-08-13T01:43:20.518Z,95783.92
2023-08-13T01:44:27.079Z,95782.41
2023-08-13T01:45:33.609Z,95782.94
2023-08-13T01:46:40.463Z,95784.42
2023-08-13T01:47:47.534Z,95782.20
2023-08-13T01:48:53.663Z,95776.80
2023-08-13T01:49:59.883Z,95779.29
2023-08-13T01:51:05.954Z,95779.80
2023-08-13T01:52:12.384Z,95779.96
2023-08-13T01:53:19.771Z,95787.48
2023-08-13T01:54:26.334Z,95785.20
2023-08-13T01:55:32.996Z,95787.02
2023-08-13T01:56:39.585Z,95791.09
2023-08-13T01:57:46.135Z,95790.77
2023-08-13T01:58:52.750Z,95792.45
2023-08-13T01:59:58.936Z,95793.10
2023-08-13T02:01:05.364Z,95793.80
2023-08-13T02:02:12.170Z,95796.25
2023-08-13T02:03:18.967Z,95797.74
2023-08-13T02:04:27.474Z,95795.37
2023-08-13T02:05:33.911Z,95795.72
2023-08-13T02:06:40.061Z,95792.90
2023-08-13T02:07:47.754Z,95793.90
2023-08-13T02:08:54.367Z,95798.14
2023-08-13T02:10:01.378Z,95794.34
2023-08-13T02:11:07.802Z,95796.35
2023-08-13T02:12:14.106Z,95796.69
2023-08-13T02:13:20.292Z,95796.41
2023-08-13T02:14:26.927Z,95795.77
2023-08-13T02:15:33.028Z,95796.08
2023-08-13T02:16:39.555Z,95798.91
2023-08-13T02:17:46.424Z,95798.59
2023-08-13T02:18:53.279Z,95799.45
2023-08-13T02:19:59.417Z,95798.53
2023-08-13T02:21:05.987Z,95801.66
2023-08-13T02:22:12.688Z,95802.27
2023-08-13T02:23:19.130Z,95801.77
2023-08-13T02:24:25.250Z,95797.16
2023-08-13T02:25:31.506Z,95794.56
2023-08-13T02:26:37.395Z,95798.14
2023-08-13T02:27:43.326Z,95800.02
2023-08-13T02:28:49.619Z,95800.29
2023-08-13T02:29:56.136Z,95802.95
2023-08-13T02:31:02.194Z,95800.18
2023-08-13T02:32:08.842Z,95801.79
2023-08-13T02:33:14.895Z,95799.44
2023-08-13T02:34:21.496Z,95801.20
2023-08-13T02:35:28.517Z,95799.15
2023-08-13T02:36:34.778Z,95799.34
2023-08-13T02:37:40.825Z,95799.92
2023-08-13T02:38:47.623Z,95798.29
2023-08-13T02:39:53.846Z,95800.90
2023-08-13T02:41:03.970Z,95799.66
2023-08-13T02:42:09.836Z,95798.34
2023-08-13T02:43:15.991Z,95797.63
2023-08-13T02:44:22.131Z,95794.50
2023-08-13T02:45:28.104Z,95794.76
2023-08-13T02:46:34.446Z,95796.98
2023-08-13T02:47:40.469Z,95795.60
2023-08-13T02:48:47.447Z,95797.46
2023-08-13T02:49:53.368Z,95794.66
2023-08-13T02:50:59.373Z,95795.92
2023-08-13T02:52:06.271Z,95795.81
2023-08-13T02:53:12.327Z,95799.23
2023-08-13T02:54:18.733Z,95800.52
2023-08-13T02:55:24.826Z,95796.79
2023-08-13T02:56:31.198Z,95797.20
2023-08-13T02:57:43.412Z,95800.00
2023-08-13T02:58:53.089Z,95801.61
2023-08-13T02:59:59.444Z,95799.37
2023-08-13T03:01:05.710Z,95798.27
2023-08-13T03:02:12.392Z,95801.07
2023-08-13T03:03:18.799Z,95804.46
2023-08-13T03:04:25.894Z,95801.95
2023-08-13T03:05:33.887Z,95804.66
2023-08-13T03:06:40.660Z,95801.70
2023-08-13T03:07:47.558Z,95802.48
2023-08-13T03:08:53.777Z,95803.27
2023-08-13T03:10:00.167Z,95805.64
2023-08-13T03:11:14.494Z,95803.97
2023-08-13T03:12:20.519Z,95804.27
2023-08-13T03:13:26.668Z,95805.30
2023-08-13T03:14:33.387Z,95804.53
2023-08-13T03:15:40.153Z,95808.61
2023-08-13T03:16:46.169Z,95807.41
2023-08-13T03:17:53.782Z,95809.89
2023-08-13T03:18:59.800Z,95811.85
2023-08-13T03:20:10.569Z,95808.50
2023-08-13T03:21:16.605Z,95810.05
2023-08-13T03:22:22.383Z,95810.14
2023-08-13T03:23:29.222Z,95806.18
2023-08-13T03:24:35.671Z,95810.38
2023-08-13T03:25:42.785Z,95808.79
2023-08-13T03:26:48.685Z,95811.12
2023-08-13T03:27:54.967Z,95810.70
2023-08-13T03:29:01.014Z,95816.02
2023-08-13T03:30:09.269Z,95812.67
2023-08-13T03:31:15.433Z,95814.70
2023-08-13T03:32:21.218Z,95815.75
2023-08-13T03:33:27.457Z,95816.91
2023-08-13T03:34:33.444Z,95816.59
2023-08-13T03:35:40.439Z,95816.34
2023-08-13T03:36:46.452Z,95818.79
2023-08-13T03:37:52.480Z,95818.80
2023-08-13T03:38:58.260Z,95820.78
2023-08-13T03:40:06.921Z,95819.67
2023-08-13T03:41:15.639Z,95819.36
2023-08-13T03:42:22.580Z,95818.36
2023-08-13T03:43:29.921Z,95819.52
2023-08-13T03:44:36.119Z,95816.46
2023-08-13T03:45:44.302Z,95817.27
2023-08-13T03:46:51.180Z,95814.94
2023-08-13T03:47:58.970Z,95818.88
2023-08-13T03:49:06.089Z,95817.23
2023-08-13T03:50:13.222Z,95814.97
2023-08-13T03:51:19.591Z,95818.69
2023-08-13T03:52:26.021Z,95815.62
2023-08-13T03:53:32.645Z,95814.52
2023-08-13T03:54:39.827Z,95817.79
2023-08-13T03:55:45.861Z,95813.55
2023-08-13T03:56:51.931Z,95814.04
2023-08-13T03:57:58.618Z,95813.42
2023-08-13T03:59:04.856Z,95815.84
2023-08-13T04:00:13.237Z,95814.32
2023-08-13T04:01:19.609Z,95815.05
2023-08-13T04:02:26.320Z,95816.20
2023-08-13T04:03:32.928Z,95819.07
2023-08-13T04:04:39.446Z,95816.84
2023-08-13T04:05:45.949Z,95815.27
2023-08-13T04:06:53.040Z,95813.98
2023-08-13T04:08:00.019Z,95817.25
2023-08-13T04:09:07.584Z,95815.63
2023-08-13T04:10:14.132Z,95815.48
2023-08-13T04:11:20.566Z,95814.06
2023-08-13T04:12:29.478Z,95817.16
2023-08-13T04:13:36.005Z,95814.89
2023-08-13T04:14:41.909Z,95816.06
2023-08-13T04:15:49.605Z,95811.91
2023-08-13T04:16:56.082Z,95810.46
2023-08-13T04:18:03.787Z,95813.25
2023-08-13T04:19:10.226Z,95811.53
2023-08-13T04:20:16.068Z,95815.96
2023-08-13T04:21:24.578Z,95814.55
2023-08-13T04:22:30.545Z,95817.20
2023-08-13T04:23:36.631Z,95820.67
2023-08-13T04:24:43.115Z,95817.98
2023-08-13T04:25:49.991Z,95816.39
2023-08-13T04:26:57.476Z,95821.59
2023-08-13T04:28:03.249Z,95818.95
2023-08-13T04:29:09.161Z,95824.91
2023-08-13T04:30:15.733Z,95830.27
2023-08-13T04:31:21.974Z,95832.30
2023-08-13T04:32:27.831Z,95831.11
2023-08-13T04:33:33.790Z,95833.22
2023-08-13T04:34:40.553Z,95834.67
2023-08-13T04:35:47.058Z,95833.15
2023-08-13T04:36:53.578Z,95833.44
2023-08-13T04:37:59.661Z,95836.33
2023-08-13T04:39:06.492Z,95837.25
2023-08-13T04:40:14.170Z,95837.34
2023-08-13T04:41:20.326Z,95837.32
2023-08-13T04:42:26.676Z,95838.65
2023-08-13T04:43:33.081Z,95834.48
2023-08-13T04:44:40.050Z,95837.86
2023-08-13T04:45:49.709Z,95837.36
2023-08-13T04:46:56.032Z,95837.16
2023-08-13T04:48:03.759Z,95834.63
2023-08-13T04:49:09.665Z,95838.37
2023-08-13T04:50:16.049Z,95839.98
2023-08-13T04:51:22.518Z,95838.76
2023-08-13T04:52:28.460Z,95843.27
2023-08-13T04:53:35.276Z,95842.95
2023-08-13T04:54:43.228Z,95844.20
2023-08-13T04:55:50.112Z,95841.25
2023-08-13T04:56:56.031Z,95844.96
2023-08-13T04:58:02.259Z,95845.86
2023-08-13T04:59:08.613Z,95844.58
2023-08-13T05:00:18.348Z,95842.66
2023-08-13T05:01:24.924Z,95844.19
2023-08-13T05:02:30.981Z,95845.30
2023-08-13T05:03:39.460Z,95843.25
2023-08-13T05:04:44.591Z,95844.19
2023-08-13T05:05:51.767Z,95847.23
2023-08-13T05:06:58.077Z,95842.74
2023-08-13T05:08:05.702Z,95847.38
2023-08-13T05:09:11.860Z,95845.91
2023-08-13T05:10:18.314Z,95846.98
2023-08-13T05:11:24.382Z,95847.20
2023-08-13T05:12:30.843Z,95846.05
2023-08-13T05:13:37.513Z,95845.61
2023-08-13T05:14:44.870Z,95844.30
2023-08-13T05:15:50.922Z,95847.69
2023-08-13T05:16:57.816Z,95845.73
2023-08-13T05:18:05.224Z,95844.92
2023-08-13T05:19:13.275Z,95845.69
2023-08-13T05:20:21.218Z,95841.88
2023-08-13T05:21:27.746Z,95848.27
2023-08-13T05:22:33.984Z,95849.89
2023-08-13T05:23:40.458Z,95850.67
2023-08-13T05:24:49.263Z,95850.42
2023-08-13T05:25:55.609Z,95847.48
2023-08-13T05:27:04.564Z,95849.32
2023-08-13T05:28:10.643Z,95852.26
2023-08-13T05:29:17.366Z,95851.21
2023-08-13T05:30:23.896Z,95845.98
2023-08-13T05:31:31.672Z,95851.55
2023-08-13T05:32:38.293Z,95852.92
2023-08-13T05:33:44.524Z,95854.12
2023-08-13T05:34:51.595Z,95853.98
2023-08-13T05:35:58.234Z,95855.00
2023-08-13T05:37:05.233Z,95855.35
2023-08-13T05:38:11.582Z,95858.78
2023-08-13T05:39:17.339Z,95859.42
2023-08-13T05:40:23.372Z,95859.59
2023-08-13T05:41:30.811Z,95858.48
2023-08-13T05:42:36.945Z,95860.56
2023-08-13T05:43:43.591Z,95856.13
2023-08-13T05:44:50.154Z,95857.98
2023-08-13T05:45:56.277Z,95856.46
2023-08-13T05:47:04.912Z,95856.45
2023-08-13T05:48:12.401Z,95857.09
2023-08-13T05:49:19.159Z,95855.33
2023-08-13T05:50:25.845Z,95856.09
2023-08-13T05:51:31.766Z,95857.34
2023-08-13T05:52:38.127Z,95855.46
2023-08-13T05:53:44.580Z,95851.15
2023-08-13T05:54:51.371Z,95857.16
2023-08-13T05:56:01.998Z,95856.65
2023-08-13T05:57:08.090Z,95855.81
2023-08-13T05:58:14.305Z,95856.91
2023-08-13T05:59:20.335Z,95857.31
2023-08-13T06:00:27.069Z,95859.95
2023-08-13T06:01:34.976Z,95863.17
2023-08-13T06:02:41.608Z,95862.69
2023-08-13T06:03:47.748Z,95863.56
2023-08-13T06:04:55.743Z,95865.99
2023-08-13T06:06:01.787Z,95864.20
2023-08-13T06:07:08.234Z,95867.80
2023-08-13T06:08:15.086Z,95865.02
2023-08-13T06:09:21.564Z,95865.83
2023-08-13T06:10:32.530Z,95868.29
2023-08-13T06:11:39.406Z,95866.46
2023-08-13T06:12:45.238Z,95866.10
2023-08-13T06:13:51.802Z,95869.95
2023-08-13T06:14:58.081Z,95868.23
2023-08-13T06:16:05.594Z,95869.88
2023-08-13T06:17:15.101Z,95868.68
2023-08-13T06:18:26.516Z,95866.42
2023-08-13T06:19:32.616Z,95868.02
2023-08-13T06:20:38.974Z,95865.66
2023-08-13T06:21:45.163Z,95864.88
2023-08-13T06:22:51.404Z,95869.29
2023-08-13T06:23:58.156Z,95869.92
2023-08-13T06:25:04.507Z,95869.40
2023-08-13T06:26:10.540Z,95871.64
2023-08-13T06:27:17.573Z,95868.81
2023-08-13T06:28:23.796Z,95868.42
2023-08-13T06:29:30.093Z,95872.33
2023-08-13T06:30:36.423Z,95872.41
2023-08-13T06:31:43.410Z,95875.70
2023-08-13T06:32:49.769Z,95871.95
2023-08-13T06:33:56.484Z,95877.27
2023-08-13T06:35:03.295Z,95879.13
2023-08-13T06:36:09.336Z,95880.41
2023-08-13T06:37:15.297Z,95879.80
2023-08-13T06:38:22.725Z,95883.69
2023-08-13T06:39:30.311Z,95884.53
2023-08-13T06:40:37.315Z,95879.16
2023-08-13T06:41:43.438Z,95879.59
2023-08-13T06:42:49.922Z,95883.59
2023-08-13T06:43:57.104Z,95880.95
2023-08-13T06:45:15.043Z,95882.42
2023-08-13T06:46:24.525Z,95882.69
2023-08-13T06:47:33.853Z,95883.66
2023-08-13T06:48:43.109Z,95880.82
2023-08-13T06:49:50.554Z,95881.27
2023-08-13T06:50:59.645Z,95882.21
2023-08-13T06:52:07.940Z,95881.89
2023-08-13T06:53:14.571Z,95883.13
2023-08-13T06:54:21.648Z,95880.36
2023-08-13T06:55:29.010Z,95881.23
2023-08-13T06:56:37.756Z,95878.45
2023-08-13T06:57:42.094Z,95877.95
2023-08-13T06:58:48.093Z,95872.45
2023-08-13T06:59:54.794Z,95872.09
2023-08-13T07:01:01.422Z,95873.42
2023-08-13T07:02:07.978Z,95871.83
2023-08-13T07:03:14.314Z,95872.91
2023-08-13T07:04:20.822Z,95873.78
2023-08-13T07:05:26.954Z,95872.48
2023-08-13T07:06:33.132Z,95871.27
2023-08-13T07:07:38.975Z,95869.19
2023-08-13T07:08:44.988Z,95870.95
2023-08-13T07:09:51.260Z,95870.55
2023-08-13T07:10:57.410Z,95871.48
2023-08-13T07:12:04.370Z,95871.53
2023-08-13T07:13:11.406Z,95868.12
2023-08-13T07:14:18.022Z,95870.70
2023-08-13T07:15:25.003Z,95870.73
2023-08-13T07:16:31.812Z,95870.55
2023-08-13T07:17:37.999Z,95872.83
2023-08-13T07:18:45.052Z,95873.59
2023-08-13T07:19:52.062Z,95871.83
2023-08-13T07:20:58.815Z,95876.20
2023-08-13T07:22:06.400Z,95874.61
2023-08-13T07:23:12.550Z,95873.42
2023-08-13T07:24:19.580Z,95871.49
2023-08-13T07:25:26.187Z,95873.55
2023-08-13T07:26:32.458Z,95871.35
2023-08-13T07:27:38.383Z,95872.30
2023-08-13T07:28:45.452Z,95871.83
2023-08-13T07:29:52.042Z,95873.76
2023-08-13T07:31:00.379Z,95868.84
2023-08-13T07:32:10.669Z,95875.71
2023-08-13T07:33:18.068Z,95872.29
2023-08-13T07:34:25.002Z,95875.38
2023-08-13T07:35:31.530Z,95876.95
2023-08-13T07:36:37.583Z,95878.33
2023-08-13T07:37:44.657Z,95879.44
2023-08-13T07:38:51.321Z,95876.90
2023-08-13T07:39:57.838Z,95877.14
2023-08-13T07:41:04.705Z,95875.46
2023-08-13T07:42:11.407Z,95873.14
2023-08-13T07:43:17.452Z,95876.10
2023-08-13T07:44:26.199Z,95875.06
2023-08-13T07:45:34.226Z,95873.80
2023-08-13T07:46:40.699Z,95873.49
2023-08-13T07:47:46.975Z,95870.41
2023-08-13T07:48:54.339Z,95871.22
2023-08-13T07:50:01.624Z,95868.21
2023-08-13T07:51:07.488Z,95870.63
2023-08-13T07:52:14.883Z,95869.05
2023-08-13T07:53:21.865Z,95870.35
2023-08-13T07:54:30.027Z,95868.98
2023-08-13T07:55:36.449Z,95868.73
2023-08-13T07:56:42.617Z,95872.44
2023-08-13T07:57:50.326Z,95869.70
2023-08-13T07:58:56.262Z,95868.31
2023-08-13T08:00:02.836Z,95869.80
2023-08-13T08:01:09.758Z,95867.17
2023-08-13T08:02:16.984Z,95863.41
2023-08-13T08:03:24.207Z,95867.37
2023-08-13T08:04:30.429Z,95864.33
2023-08-13T08:05:37.474Z,95863.42
2023-08-13T08:06:43.274Z,95865.86
2023-08-13T08:07:50.336Z,95863.18
2023-08-13T08:08:56.542Z,95864.27
2023-08-13T08:10:03.564Z,95863.13
2023-08-13T08:11:10.301Z,95864.84
2023-08-13T08:12:17.834Z,95866.29
2023-08-13T08:13:24.853Z,95865.26
2023-08-13T08:14:31.165Z,95865.27
2023-08-13T08:15:37.436Z,95863.20
2023-08-13T08:16:43.995Z,95865.22
2023-08-13T08:17:50.167Z,95862.75
2023-08-13T08:18:57.449Z,95861.54
2023-08-13T08:20:05.988Z,95861.13
2023-08-13T08:21:12.416Z,95861.39
2023-08-13T08:22:19.084Z,95862.95
2023-08-13T08:23:25.676Z,95860.54
2023-08-13T08:24:33.806Z,95859.87
2023-08-13T08:25:39.988Z,95858.56
2023-08-13T08:26:45.773Z,95858.05
2023-08-13T08:27:52.744Z,95856.45
2023-08-13T08:28:58.697Z,95856.23
2023-08-13T08:30:06.376Z,95854.44
2023-08-13T08:31:15.525Z,95853.82
2023-08-13T08:32:22.148Z,95853.84
2023-08-13T08:33:28.847Z,95852.54
2023-08-13T08:34:39.060Z,95845.60
2023-08-13T08:35:45.536Z,95843.66
2023-08-13T08:36:51.912Z,95845.77
2023-08-13T08:37:58.214Z,95844.09
2023-08-13T08:39:05.439Z,95846.77
2023-08-13T08:40:13.903Z,95842.95
2023-08-13T08:41:24.031Z,95842.42
2023-08-13T08:42:32.986Z,95843.73
2023-08-13T08:43:40.267Z,95842.95
2023-08-13T08:44:46.918Z,95846.29
2023-08-13T08:45:54.569Z,95841.44
2023-08-13T08:47:04.985Z,95838.41
2023-08-13T08:48:14.646Z,95841.83
2023-08-13T08:49:24.969Z,95837.55
2023-08-13T08:50:33.062Z,95834.92
2023-08-13T08:51:39.428Z,95834.30
2023-08-13T08:52:45.944Z,95835.99
2023-08-13T08:53:54.557Z,95834.86
2023-08-13T08:55:01.120Z,95836.61
2023-08-13T08:56:08.657Z,95838.32
2023-08-13T08:57:15.156Z,95834.83
2023-08-13T08:58:21.253Z,95834.36
2023-08-13T08:59:27.748Z,95830.79
2023-08-13T09:00:34.147Z,95827.31
2023-08-13T09:01:42.319Z,95827.40
2023-08-13T09:02:49.449Z,95827.11
2023-08-13T09:03:56.623Z,95832.62
2023-08-13T09:05:03.461Z,95830.79
2023-08-13T09:06:21.460Z,95826.48
2023-08-13T09:07:34.042Z,95825.86
2023-08-13T09:08:42.192Z,95824.66
2023-08-13T09:09:51.618Z,95828.33
2023-08-13T09:10:59.296Z,95825.07
2023-08-13T09:12:07.907Z,95829.73
2023-08-13T09:13:14.314Z,95826.48
2023-08-13T09:14:21.362Z,95824.74
2023-08-13T09:15:27.617Z,95825.79
2023-08-13T09:16:36.928Z,95820.95
2023-08-13T09:17:43.580Z,95824.05
2023-08-13T09:19:04.139Z,95827.02
2023-08-13T09:20:22.741Z,95823.21
2023-08-13T09:21:30.450Z,95820.91
2023-08-13T09:22:36.696Z,95823.97
2023-08-13T09:23:43.138Z,95820.27
2023-08-13T09:24:51.026Z,95820.13
2023-08-13T09:25:59.494Z,95820.05
2023-08-13T09:27:08.344Z,95812.80
2023-08-13T09:28:16.358Z,95812.50
2023-08-13T09:29:24.249Z,95811.61
2023-08-13T09:30:37.100Z,95809.63
2023-08-13T09:31:43.206Z,95806.69
2023-08-13T09:32:49.753Z,95804.77
2023-08-13T09:33:56.243Z,95805.65
2023-08-13T09:35:06.881Z,95809.88
2023-08-13T09:36:17.173Z,95806.77
2023-08-13T09:37:27.072Z,95808.27
2023-08-13T09:38:32.950Z,95814.02
2023-08-13T09:39:41.732Z,95807.33
2023-08-13T09:40:52.790Z,95808.45
2023-08-13T09:42:00.848Z,95813.49
2023-08-13T09:43:10.296Z,95804.70
2023-08-13T09:44:19.400Z,95810.31
2023-08-13T09:45:30.566Z,95810.55
2023-08-13T09:46:41.182Z,95810.48
2023-08-13T09:47:50.078Z,95810.89
2023-08-13T09:49:01.580Z,95812.72
2023-08-13T09:50:11.575Z,95811.22
2023-08-13T09:51:29.604Z,95814.57
2023-08-13T09:52:48.077Z,95809.05
2023-08-13T09:54:00.220Z,95811.14
2023-08-13T09:55:12.045Z,95809.22
2023-08-13T09:56:20.866Z,95812.35
2023-08-13T09:57:29.921Z,95808.52
2023-08-13T09:58:36.738Z,95807.97
2023-08-13T09:59:43.276Z,95803.98
2023-08-13T10:00:51.707Z,95799.79
2023-08-13T10:01:59.130Z,95800.25
2023-08-13T10:03:09.891Z,95797.85
2023-08-13T10:04:19.506Z,95797.13
2023-08-13T10:05:26.591Z,95796.10
2023-08-13T10:06:33.258Z,95797.92
2023-08-13T10:07:41.768Z,95792.02
2023-08-13T10:08:49.177Z,95796.11
2023-08-13T10:10:07.181Z,95794.90
2023-08-13T10:11:15.994Z,95787.88
2023-08-13T10:12:22.532Z,95787.63
2023-08-13T10:13:29.840Z,95790.04
2023-08-13T10:14:37.112Z,95787.80
2023-08-13T10:15:45.818Z,95791.23
2023-08-13T10:16:50.499Z,95788.67
2023-08-13T10:17:57.682Z,95791.55
2023-08-13T10:19:08.998Z,95791.38
2023-08-13T10:20:15.855Z,95794.17
2023-08-13T10:21:35.170Z,95791.08
2023-08-13T10:22:42.009Z,95791.86
2023-08-13T10:23:49.564Z,95791.70
2023-08-13T10:24:56.066Z,95792.10
2023-08-13T10:26:02.426Z,95791.69
2023-08-13T10:27:12.722Z,95790.27
2023-08-13T10:28:28.730Z,95791.70
2023-08-13T10:29:45.012Z,95785.39
2023-08-13T10:30:51.088Z,95785.63
2023-08-13T10:32:02.408Z,95787.86
2023-08-13T10:33:10.257Z,95787.54
2023-08-13T10:34:18.428Z,95792.55
2023-08-13T10:35:29.942Z,95786.09
2023-08-13T10:36:55.922Z,95790.16
2023-08-13T10:38:04.133Z,95784.58
2023-08-13T10:39:34.439Z,95787.04
2023-08-13T10:41:00.364Z,95785.45
2023-08-13T10:42:45.001Z,95780.81
2023-08-13T10:44:02.441Z,95777.06
2023-08-13T10:45:11.255Z,95784.55
2023-08-13T10:46:17.838Z,95786.80
2023-08-13T10:47:38.009Z,95781.16
2023-08-13T10:48:44.501Z,95781.31
2023-08-13T10:49:51.219Z,95775.31
2023-08-13T10:51:00.970Z,95772.12
2023-08-13T10:52:08.336Z,95773.38
2023-08-13T10:53:28.263Z,95772.08
2023-08-13T10:54:34.251Z,95770.57
2023-08-13T10:55:49.228Z,95769.83
2023-08-13T10:57:00.249Z,95767.34
2023-08-13T10:58:07.166Z,95770.77
2023-08-13T10:59:13.595Z,95767.09
2023-08-13T11:00:23.199Z,95763.09
2023-08-13T11:01:29.226Z,95766.13
2023-08-13T11:02:35.541Z,95766.52
2023-08-13T11:03:48.847Z,95766.14
2023-08-13T11:04:55.762Z,95765.34
2023-08-13T11:06:04.043Z,95761.73
2023-08-13T11:07:12.258Z,95758.05
2023-08-13T11:08:34.019Z,95758.46
2023-08-13T11:09:50.159Z,95758.79
2023-08-13T11:10:57.830Z,95756.69
2023-08-13T11:12:06.371Z,95756.36
2023-08-13T11:13:13.819Z,95761.70
2023-08-13T11:14:21.424Z,95759.70
2023-08-13T11:15:31.478Z,95759.36
2023-08-13T11:16:38.488Z,95753.05
2023-08-13T11:17:48.764Z,95759.09
2023-08-13T11:18:56.781Z,95750.27
2023-08-13T11:20:07.541Z,95753.34
2023-08-13T11:21:13.590Z,95751.30
2023-08-13T11:22:19.958Z,95747.05
2023-08-13T11:23:27.114Z,95745.94
2023-08-13T11:24:34.314Z,95748.20
2023-08-13T11:25:40.800Z,95747.98
2023-08-13T11:26:51.103Z,95746.13
2023-08-13T11:27:57.246Z,95746.61
2023-08-13T11:29:03.630Z,95748.23
2023-08-13T11:30:15.224Z,95746.98
2023-08-13T11:31:21.663Z,95748.63
2023-08-13T11:32:27.755Z,95745.38
2023-08-13T11:33:34.659Z,95736.34
2023-08-13T11:34:41.554Z,95737.61
2023-08-13T11:35:49.544Z,95739.57
2023-08-13T11:36:57.560Z,95737.05
2023-08-13T11:38:04.855Z,95734.36
2023-08-13T11:39:11.934Z,95737.39
2023-08-13T11:40:18.884Z,95735.63
2023-08-13T11:41:25.029Z,95738.11
2023-08-13T11:42:31.106Z,95737.14
2023-08-13T11:43:45.530Z,95739.71
2023-08-13T11:44:57.204Z,95733.85
2023-08-13T11:46:05.381Z,95737.93
2023-08-13T11:47:12.168Z,95728.41
2023-08-13T11:48:20.920Z,95730.02
2023-08-13T11:49:25.879Z,95730.89
2023-08-13T11:50:35.729Z,95731.64
2023-08-13T11:51:45.592Z,95730.91
2023-08-13T11:53:12.565Z,95732.97
2023-08-13T11:54:21.274Z,95730.14
2023-08-13T11:55:28.941Z,95731.89
2023-08-13T11:56:35.476Z,95738.63
2023-08-13T11:57:42.983Z,95731.05
2023-08-13T11:58:49.541Z,95731.23
2023-08-13T11:59:58.044Z,95730.43
2023-08-13T12:01:04.782Z,95735.23
2023-08-13T12:02:11.029Z,95732.43
2023-08-13T12:03:17.552Z,95735.54
2023-08-13T12:04:24.290Z,95732.15
2023-08-13T12:05:33.100Z,95733.77
2023-08-13T12:06:38.124Z,95736.96
2023-08-13T12:07:44.901Z,95730.63
2023-08-13T12:08:53.195Z,95733.95
2023-08-13T12:09:58.110Z,95732.48
2023-08-13T12:11:05.132Z,95732.72
2023-08-13T12:12:11.175Z,95737.09
2023-08-13T12:13:17.337Z,95729.39
2023-08-13T12:14:23.842Z,95735.49
2023-08-13T12:15:31.854Z,95733.28
2023-08-13T12:16:38.096Z,95739.98
2023-08-13T12:17:44.616Z,95735.27
2023-08-13T12:18:51.681Z,95731.00
2023-08-13T12:19:58.566Z,95727.33
2023-08-13T12:21:06.226Z,95729.61
2023-08-13T12:22:13.765Z,95723.61
2023-08-13T12:23:20.878Z,95723.71
2023-08-13T12:24:27.463Z,95723.95
2023-08-13T12:25:34.044Z,95723.23
2023-08-13T12:26:40.632Z,95723.20
2023-08-13T12:27:48.561Z,95728.78
2023-08-13T12:28:55.537Z,95723.14
2023-08-13T12:30:02.458Z,95722.81
2023-08-13T12:31:08.611Z,95725.86
2023-08-13T12:32:14.954Z,95726.28
2023-08-13T12:33:21.253Z,95726.91
2023-08-13T12:34:28.064Z,95727.33
2023-08-13T12:35:35.601Z,95723.55
2023-08-13T12:36:41.936Z,95720.32
2023-08-13T12:37:49.336Z,95722.14
2023-08-13T12:38:55.623Z,95721.41
2023-08-13T12:40:02.265Z,95722.38
2023-08-13T12:41:08.338Z,95723.88
2023-08-13T12:42:19.773Z,95724.73
2023-08-13T12:43:26.537Z,95721.75
2023-08-13T12:44:34.904Z,95717.45
2023-08-13T12:45:41.851Z,95716.60
2023-08-13T12:46:47.860Z,95717.95
2023-08-13T12:47:54.473Z,95715.03
2023-08-13T12:49:01.215Z,95714.95
2023-08-13T12:50:11.922Z,95713.98
2023-08-13T12:51:18.343Z,95711.47
2023-08-13T12:52:25.165Z,95709.36
2023-08-13T12:53:31.752Z,95705.42
2023-08-13T12:54:37.550Z,95706.08
2023-08-13T12:55:43.483Z,95704.51
2023-08-13T12:56:49.899Z,95703.66
2023-08-13T12:57:56.828Z,95706.08
2023-08-13T12:59:07.440Z,95699.00
2023-08-13T13:00:15.614Z,95699.08
2023-08-13T13:01:22.024Z,95695.05
2023-08-13T13:02:29.831Z,95696.03
2023-08-13T13:03:36.029Z,95696.17
2023-08-13T13:04:42.800Z,95692.67
2023-08-13T13:05:50.625Z,95692.98
2023-08-13T13:06:58.481Z,95689.25
2023-08-13T13:08:06.066Z,95690.44
2023-08-13T13:09:12.531Z,95687.14
2023-08-13T13:10:19.399Z,95685.67
2023-08-13T13:11:26.775Z,95683.96
2023-08-13T13:12:32.979Z,95686.66
2023-08-13T13:13:38.916Z,95684.01
2023-08-13T13:14:45.152Z,95681.63
2023-08-13T13:15:51.803Z,95684.08
2023-08-13T13:16:57.994Z,95681.63
2023-08-13T13:18:06.812Z,95679.77
2023-08-13T13:19:13.134Z,95680.77
2023-08-13T13:20:19.714Z,95678.15
2023-08-13T13:21:26.655Z,95678.36
2023-08-13T13:22:32.906Z,95676.58
2023-08-13T13:23:39.472Z,95678.08
2023-08-13T13:24:46.149Z,95677.02
2023-08-13T13:25:52.521Z,95679.23
2023-08-13T13:26:58.878Z,95679.55
2023-08-13T13:28:06.039Z,95676.17
2023-08-13T13:29:14.073Z,95674.95
2023-08-13T13:30:20.749Z,95675.62
2023-08-13T13:31:27.366Z,95674.54
2023-08-13T13:32:33.447Z,95672.80
2023-08-13T13:33:39.780Z,95672.64
2023-08-13T13:34:45.825Z,95671.73
2023-08-13T13:35:52.238Z,95673.64
2023-08-13T13:36:58.464Z,95673.66
2023-08-13T13:38:05.803Z,95670.00
2023-08-13T13:39:13.146Z,95668.80
2023-08-13T13:40:19.848Z,95666.50
2023-08-13T13:41:25.990Z,95671.02
2023-08-13T13:42:32.183Z,95671.02
2023-08-13T13:43:38.648Z,95669.07
2023-08-13T13:44:45.164Z,95668.88
2023-08-13T13:45:51.284Z,95666.05
2023-08-13T13:46:57.643Z,95663.40
2023-08-13T13:48:04.379Z,95661.53
2023-08-13T13:49:10.537Z,95661.69
2023-08-13T13:50:19.856Z,95660.67
2023-08-13T13:51:26.202Z,95662.66
2023-08-13T13:52:32.951Z,95659.77
2023-08-13T13:53:39.928Z,95660.14
2023-08-13T13:54:46.012Z,95657.57
2023-08-13T13:55:53.251Z,95657.67
2023-08-13T13:56:59.913Z,95658.70
2023-08-13T13:58:07.042Z,95661.87
2023-08-13T13:59:20.948Z,95654.42
2023-08-13T14:00:29.291Z,95654.17
2023-08-13T14:01:39.303Z,95657.52
2023-08-13T14:02:48.393Z,95652.58
2023-08-13T14:04:00.869Z,95652.68
2023-08-13T14:05:14.669Z,95652.27